AFR42VQ LFPG-LFMN
Flight info
| Callsign | AFR42VQ |
|---|---|
| Flight time | 1h 15m |
| Altitude | 32000 |
| Route | LATRA DCT LAMUT DCT UTUVA DCT LERGA DCT LIQID DCT NISAR |
| Aircraft | A320/M-SDE2E3FGIJ1RWY/HB1 |
Departure
| Time | 2026-05-07 20:48 |
|---|---|
| Airport | Charles de Gaulle International Airport (LFPG) |
Arrival
| Time | 2026-05-07 22:03 |
|---|---|
| Airport | Nice-Côte d'Azur Airport (LFMN) |
| Time | Latitude | Longitude | Altitude | Speed | Heading |
|---|---|---|---|---|---|
| 2026-05-07 20:13 | 49.00704 | 2.57767 | 355 ft | 0 kts | 126° |
| 2026-05-07 20:35 | 49.00715 | 2.57743 | 359 ft | 4 kts | 126° |
| 2026-05-07 20:36 | 49.00731 | 2.57709 | 363 ft | 4 kts | 126° |
| 2026-05-07 20:36 | 49.00745 | 2.57682 | 357 ft | 4 kts | 150° |
| 2026-05-07 20:36 | 49.00764 | 2.57679 | 361 ft | 4 kts | 225° |
| 2026-05-07 20:36 | 49.00777 | 2.57712 | 371 ft | 4 kts | 259° |
| 2026-05-07 20:37 | 49.00778 | 2.57722 | 365 ft | 0 kts | 265° |
| 2026-05-07 20:40 | 49.00778 | 2.57721 | 354 ft | 1 kts | 265° |
| 2026-05-07 20:40 | 49.00775 | 2.57662 | 360 ft | 8 kts | 265° |
| 2026-05-07 20:40 | 49.00814 | 2.57579 | 354 ft | 12 kts | 329° |
| 2026-05-07 20:40 | 49.00875 | 2.57488 | 359 ft | 16 kts | 272° |
| 2026-05-07 20:41 | 49.00863 | 2.57304 | 356 ft | 16 kts | 265° |
| 2026-05-07 20:41 | 49.00853 | 2.57099 | 354 ft | 23 kts | 266° |
| 2026-05-07 20:41 | 49.00840 | 2.56850 | 358 ft | 24 kts | 265° |
| 2026-05-07 20:41 | 49.00826 | 2.56587 | 354 ft | 26 kts | 265° |
| 2026-05-07 20:42 | 49.00803 | 2.56311 | 354 ft | 27 kts | 261° |
| 2026-05-07 20:42 | 49.00776 | 2.56028 | 357 ft | 25 kts | 262° |
| 2026-05-07 20:42 | 49.00750 | 2.55763 | 362 ft | 26 kts | 262° |
| 2026-05-07 20:42 | 49.00731 | 2.55506 | 357 ft | 19 kts | 264° |
| 2026-05-07 20:43 | 49.00715 | 2.55343 | 354 ft | 14 kts | 250° |
| 2026-05-07 20:43 | 49.00659 | 2.55248 | 356 ft | 11 kts | 195° |
| 2026-05-07 20:43 | 49.00588 | 2.55269 | 354 ft | 10 kts | 163° |
| 2026-05-07 20:43 | 49.00529 | 2.55295 | 362 ft | 8 kts | 164° |
| 2026-05-07 20:44 | 49.00472 | 2.55320 | 360 ft | 9 kts | 165° |
| 2026-05-07 20:44 | 49.00411 | 2.55346 | 354 ft | 9 kts | 164° |
| 2026-05-07 20:44 | 49.00347 | 2.55373 | 361 ft | 10 kts | 164° |
| 2026-05-07 20:44 | 49.00277 | 2.55403 | 355 ft | 11 kts | 164° |
| 2026-05-07 20:45 | 49.00203 | 2.55436 | 358 ft | 11 kts | 164° |
| 2026-05-07 20:45 | 49.00124 | 2.55471 | 359 ft | 12 kts | 164° |
| 2026-05-07 20:45 | 49.00039 | 2.55506 | 359 ft | 13 kts | 162° |
| 2026-05-07 20:45 | 48.99950 | 2.55545 | 361 ft | 14 kts | 164° |
| 2026-05-07 20:46 | 48.99867 | 2.55630 | 357 ft | 16 kts | 131° |
| 2026-05-07 20:46 | 48.99823 | 2.55777 | 356 ft | 11 kts | 120° |
| 2026-05-07 20:46 | 48.99750 | 2.55804 | 357 ft | 12 kts | 176° |
| 2026-05-07 20:46 | 48.99665 | 2.55818 | 359 ft | 13 kts | 176° |
| 2026-05-07 20:47 | 48.99603 | 2.55891 | 355 ft | 13 kts | 89° |
| 2026-05-07 20:47 | 48.99616 | 2.56111 | 359 ft | 41 kts | 85° |
| 2026-05-07 20:47 | 48.99659 | 2.56915 | 359 ft | 109 kts | 85° |
| 2026-05-07 20:47 | 48.99736 | 2.58340 | 363 ft | 158 kts | 83° |
| 2026-05-07 20:48 | 48.99824 | 2.60081 | 862 ft | 168 kts | 85° |
| 2026-05-07 20:48 | 48.99927 | 2.61885 | 1570 ft | 174 kts | 85° |
| 2026-05-07 20:48 | 49.00044 | 2.63811 | 1995 ft | 191 kts | 85° |
| 2026-05-07 20:48 | 49.00160 | 2.65937 | 2416 ft | 215 kts | 86° |
| 2026-05-07 20:49 | 49.00280 | 2.68350 | 2869 ft | 241 kts | 86° |
| 2026-05-07 20:49 | 49.00401 | 2.70994 | 3555 ft | 255 kts | 86° |
| 2026-05-07 20:49 | 49.00521 | 2.73723 | 4453 ft | 261 kts | 86° |
| 2026-05-07 20:49 | 49.00651 | 2.76512 | 5344 ft | 267 kts | 86° |
| 2026-05-07 20:50 | 49.00614 | 2.79322 | 6215 ft | 272 kts | 97° |
| 2026-05-07 20:50 | 49.00348 | 2.82198 | 7063 ft | 277 kts | 99° |
| 2026-05-07 20:50 | 49.00030 | 2.85124 | 7849 ft | 283 kts | 100° |
| 2026-05-07 20:50 | 48.99692 | 2.88116 | 8645 ft | 290 kts | 101° |
| 2026-05-07 20:51 | 48.99345 | 2.91166 | 9468 ft | 296 kts | 101° |
| 2026-05-07 20:51 | 48.98992 | 2.94286 | 10203 ft | 304 kts | 101° |
| 2026-05-07 20:51 | 48.98515 | 2.97510 | 10561 ft | 323 kts | 112° |
| 2026-05-07 20:51 | 48.97371 | 3.00514 | 11034 ft | 333 kts | 133° |
| 2026-05-07 20:52 | 48.95600 | 3.02767 | 11716 ft | 334 kts | 153° |
| 2026-05-07 20:52 | 48.93437 | 3.03975 | 11986 ft | 331 kts | 173° |
| 2026-05-07 20:52 | 48.91167 | 3.03900 | 12209 ft | 329 kts | 195° |
| 2026-05-07 20:52 | 48.89062 | 3.02605 | 12995 ft | 328 kts | 213° |
| 2026-05-07 20:53 | 48.87153 | 3.00697 | 13801 ft | 330 kts | 215° |
| 2026-05-07 20:53 | 48.85244 | 2.98735 | 14481 ft | 333 kts | 216° |
| 2026-05-07 20:53 | 48.83323 | 2.96743 | 15150 ft | 336 kts | 216° |
| 2026-05-07 20:53 | 48.81382 | 2.94730 | 15799 ft | 339 kts | 216° |
| 2026-05-07 20:54 | 48.79424 | 2.92702 | 16446 ft | 343 kts | 216° |
| 2026-05-07 20:54 | 48.77447 | 2.90657 | 17110 ft | 346 kts | 216° |
| 2026-05-07 20:54 | 48.75477 | 2.88625 | 17751 ft | 349 kts | 216° |
| 2026-05-07 20:54 | 48.73460 | 2.86548 | 18390 ft | 352 kts | 216° |
| 2026-05-07 20:55 | 48.71421 | 2.84465 | 18940 ft | 355 kts | 214° |
| 2026-05-07 20:55 | 48.69161 | 2.82892 | 19475 ft | 361 kts | 201° |
| 2026-05-07 20:55 | 48.66781 | 2.81635 | 20042 ft | 364 kts | 201° |
| 2026-05-07 20:55 | 48.64379 | 2.80389 | 20594 ft | 366 kts | 201° |
| 2026-05-07 20:56 | 48.61957 | 2.79143 | 21141 ft | 369 kts | 201° |
| 2026-05-07 20:56 | 48.59518 | 2.77890 | 21682 ft | 372 kts | 200° |
| 2026-05-07 20:56 | 48.57063 | 2.76626 | 22201 ft | 374 kts | 201° |
| 2026-05-07 20:56 | 48.54590 | 2.75347 | 22722 ft | 377 kts | 201° |
| 2026-05-07 20:57 | 48.52102 | 2.74060 | 23238 ft | 379 kts | 201° |
| 2026-05-07 20:57 | 48.49595 | 2.72766 | 23725 ft | 382 kts | 200° |
| 2026-05-07 20:57 | 48.47072 | 2.71465 | 24143 ft | 384 kts | 201° |
| 2026-05-07 20:57 | 48.44533 | 2.70157 | 24557 ft | 387 kts | 201° |
| 2026-05-07 20:58 | 48.41980 | 2.68845 | 24970 ft | 389 kts | 201° |
| 2026-05-07 20:58 | 48.39411 | 2.67527 | 25381 ft | 391 kts | 200° |
| 2026-05-07 20:58 | 48.36833 | 2.66203 | 25808 ft | 392 kts | 200° |
| 2026-05-07 20:58 | 48.34245 | 2.64877 | 26228 ft | 394 kts | 200° |
| 2026-05-07 20:59 | 48.31641 | 2.63546 | 26615 ft | 396 kts | 200° |
| 2026-05-07 20:59 | 48.29025 | 2.62208 | 27004 ft | 398 kts | 200° |
| 2026-05-07 20:59 | 48.26394 | 2.60863 | 27380 ft | 401 kts | 201° |
| 2026-05-07 20:59 | 48.23748 | 2.59509 | 27761 ft | 403 kts | 201° |
| 2026-05-07 21:00 | 48.21090 | 2.58148 | 28144 ft | 405 kts | 201° |
| 2026-05-07 21:00 | 48.18419 | 2.56785 | 28511 ft | 407 kts | 200° |
| 2026-05-07 21:00 | 48.15735 | 2.55423 | 28903 ft | 408 kts | 200° |
| 2026-05-07 21:00 | 48.13069 | 2.54085 | 29264 ft | 410 kts | 198° |
| 2026-05-07 21:01 | 48.10267 | 2.53176 | 29611 ft | 415 kts | 188° |
| 2026-05-07 21:01 | 48.07369 | 2.53017 | 29930 ft | 421 kts | 179° |
| 2026-05-07 21:01 | 48.04446 | 2.53641 | 30113 ft | 429 kts | 168° |
| 2026-05-07 21:01 | 48.01578 | 2.54984 | 30333 ft | 434 kts | 164° |
| 2026-05-07 21:02 | 47.98706 | 2.56424 | 30560 ft | 437 kts | 165° |
| 2026-05-07 21:02 | 47.95818 | 2.57856 | 30816 ft | 438 kts | 165° |
| 2026-05-07 21:02 | 47.92916 | 2.59281 | 31080 ft | 440 kts | 165° |
| 2026-05-07 21:02 | 47.90006 | 2.60704 | 31331 ft | 442 kts | 165° |
| 2026-05-07 21:03 | 47.87083 | 2.62134 | 31631 ft | 442 kts | 165° |
| 2026-05-07 21:03 | 47.84165 | 2.63562 | 31989 ft | 441 kts | 165° |
| 2026-05-07 21:03 | 47.81248 | 2.64986 | 32350 ft | 440 kts | 165° |
| 2026-05-07 21:03 | 47.78338 | 2.66407 | 32702 ft | 440 kts | 165° |
| 2026-05-07 21:04 | 47.75431 | 2.67833 | 32977 ft | 440 kts | 165° |
| 2026-05-07 21:04 | 47.69713 | 2.70637 | 33043 ft | 425 kts | 166° |
| 2026-05-07 21:05 | 47.64118 | 2.73355 | 33043 ft | 422 kts | 166° |
| 2026-05-07 21:05 | 47.58540 | 2.76046 | 33041 ft | 421 kts | 166° |
| 2026-05-07 21:06 | 47.52968 | 2.78739 | 33040 ft | 421 kts | 166° |
| 2026-05-07 21:06 | 47.48345 | 2.80978 | 33037 ft | 421 kts | 166° |
| 2026-05-07 21:07 | 47.42775 | 2.83661 | 33037 ft | 421 kts | 166° |
| 2026-05-07 21:07 | 47.37213 | 2.86341 | 33035 ft | 420 kts | 166° |
| 2026-05-07 21:08 | 47.31651 | 2.89010 | 33027 ft | 420 kts | 166° |
| 2026-05-07 21:08 | 47.26092 | 2.91669 | 33019 ft | 420 kts | 166° |
| 2026-05-07 21:09 | 47.20531 | 2.94321 | 33021 ft | 420 kts | 166° |
| 2026-05-07 21:09 | 47.14972 | 2.96965 | 33018 ft | 420 kts | 166° |
| 2026-05-07 21:10 | 47.09448 | 2.99551 | 33016 ft | 419 kts | 167° |
| 2026-05-07 21:10 | 47.03849 | 3.01875 | 33017 ft | 418 kts | 169° |
| 2026-05-07 21:11 | 46.98236 | 3.04100 | 33020 ft | 418 kts | 169° |
| 2026-05-07 21:11 | 46.89830 | 3.07506 | 33011 ft | 418 kts | 168° |
| 2026-05-07 21:12 | 46.84239 | 3.09809 | 33010 ft | 417 kts | 168° |
| 2026-05-07 21:12 | 46.78651 | 3.12103 | 33017 ft | 417 kts | 168° |
| 2026-05-07 21:13 | 46.73064 | 3.14381 | 33021 ft | 417 kts | 168° |
| 2026-05-07 21:13 | 46.67478 | 3.16653 | 33016 ft | 417 kts | 168° |
| 2026-05-07 21:14 | 46.61894 | 3.18919 | 33021 ft | 417 kts | 168° |
| 2026-05-07 21:14 | 46.56298 | 3.21185 | 33022 ft | 417 kts | 168° |
| 2026-05-07 21:15 | 46.50713 | 3.23432 | 32995 ft | 417 kts | 168° |
| 2026-05-07 21:15 | 46.45125 | 3.25687 | 32997 ft | 417 kts | 168° |
| 2026-05-07 21:16 | 46.39538 | 3.27940 | 32998 ft | 417 kts | 168° |
| 2026-05-07 21:16 | 46.33944 | 3.30182 | 32999 ft | 417 kts | 168° |
| 2026-05-07 21:17 | 46.28395 | 3.32406 | 32995 ft | 416 kts | 168° |
| 2026-05-07 21:17 | 46.22818 | 3.34636 | 33008 ft | 416 kts | 168° |
| 2026-05-07 21:18 | 46.17241 | 3.36863 | 32999 ft | 416 kts | 168° |
| 2026-05-07 21:18 | 46.11663 | 3.39084 | 32983 ft | 416 kts | 168° |
| 2026-05-07 21:19 | 46.06087 | 3.41297 | 33000 ft | 416 kts | 168° |
| 2026-05-07 21:19 | 46.00511 | 3.43501 | 32998 ft | 415 kts | 168° |
| 2026-05-07 21:20 | 45.94934 | 3.45699 | 33000 ft | 416 kts | 168° |
| 2026-05-07 21:20 | 45.89356 | 3.47908 | 33012 ft | 416 kts | 168° |
| 2026-05-07 21:21 | 45.83784 | 3.50139 | 33011 ft | 416 kts | 167° |
| 2026-05-07 21:21 | 45.78244 | 3.52524 | 33012 ft | 416 kts | 166° |
| 2026-05-07 21:22 | 45.72713 | 3.54966 | 33010 ft | 416 kts | 166° |
| 2026-05-07 21:22 | 45.67183 | 3.57367 | 33004 ft | 415 kts | 166° |
| 2026-05-07 21:23 | 45.61656 | 3.59744 | 33011 ft | 415 kts | 166° |
| 2026-05-07 21:23 | 45.56130 | 3.62103 | 33012 ft | 414 kts | 166° |
| 2026-05-07 21:24 | 45.50603 | 3.64449 | 33004 ft | 414 kts | 166° |
| 2026-05-07 21:24 | 45.45083 | 3.66802 | 33008 ft | 414 kts | 166° |
| 2026-05-07 21:25 | 45.39569 | 3.69152 | 33006 ft | 413 kts | 166° |
| 2026-05-07 21:25 | 45.34061 | 3.71495 | 33005 ft | 413 kts | 166° |
| 2026-05-07 21:26 | 45.28633 | 3.74192 | 33012 ft | 417 kts | 156° |
| 2026-05-07 21:26 | 45.26169 | 3.76394 | 33014 ft | 421 kts | 145° |
| 2026-05-07 21:26 | 45.24013 | 3.79235 | 33014 ft | 426 kts | 135° |
| 2026-05-07 21:27 | 45.20668 | 3.86169 | 32994 ft | 430 kts | 126° |
| 2026-05-07 21:27 | 45.17429 | 3.93306 | 33001 ft | 431 kts | 127° |
| 2026-05-07 21:28 | 45.14124 | 4.00390 | 33008 ft | 429 kts | 131° |
| 2026-05-07 21:28 | 45.10311 | 4.06847 | 33008 ft | 427 kts | 135° |
| 2026-05-07 21:29 | 45.06480 | 4.13277 | 33013 ft | 428 kts | 135° |
| 2026-05-07 21:29 | 45.02638 | 4.19711 | 33021 ft | 428 kts | 135° |
| 2026-05-07 21:30 | 44.98786 | 4.26143 | 33004 ft | 429 kts | 135° |
| 2026-05-07 21:30 | 44.94920 | 4.32566 | 33014 ft | 431 kts | 135° |
| 2026-05-07 21:31 | 44.91019 | 4.39019 | 33023 ft | 431 kts | 136° |
| 2026-05-07 21:31 | 44.87139 | 4.45473 | 33022 ft | 432 kts | 136° |
| 2026-05-07 21:32 | 44.83253 | 4.51917 | 33020 ft | 431 kts | 136° |
| 2026-05-07 21:32 | 44.79358 | 4.58343 | 32994 ft | 432 kts | 137° |
| 2026-05-07 21:33 | 44.75439 | 4.64799 | 33019 ft | 435 kts | 137° |
| 2026-05-07 21:33 | 44.71511 | 4.71269 | 33004 ft | 434 kts | 137° |
| 2026-05-07 21:34 | 44.67581 | 4.77714 | 32998 ft | 434 kts | 137° |
| 2026-05-07 21:34 | 44.63651 | 4.84148 | 32998 ft | 434 kts | 137° |
| 2026-05-07 21:35 | 44.59712 | 4.90566 | 32999 ft | 434 kts | 138° |
| 2026-05-07 21:35 | 44.55772 | 4.96980 | 32977 ft | 434 kts | 138° |
| 2026-05-07 21:36 | 44.51850 | 5.03369 | 32983 ft | 436 kts | 138° |
| 2026-05-07 21:36 | 44.47882 | 5.09797 | 32973 ft | 436 kts | 139° |
| 2026-05-07 21:37 | 44.43867 | 5.16176 | 32991 ft | 437 kts | 139° |
| 2026-05-07 21:37 | 44.41848 | 5.19358 | 32754 ft | 434 kts | 139° |
| 2026-05-07 21:37 | 44.39853 | 5.22503 | 32489 ft | 431 kts | 139° |
| 2026-05-07 21:38 | 44.37858 | 5.25616 | 32156 ft | 426 kts | 142° |
| 2026-05-07 21:38 | 44.35678 | 5.28327 | 31661 ft | 415 kts | 150° |
| 2026-05-07 21:38 | 44.33402 | 5.30787 | 31205 ft | 413 kts | 150° |
| 2026-05-07 21:38 | 44.31144 | 5.33242 | 30741 ft | 410 kts | 149° |
| 2026-05-07 21:39 | 44.28897 | 5.35693 | 30270 ft | 410 kts | 149° |
| 2026-05-07 21:39 | 44.26657 | 5.38138 | 29799 ft | 408 kts | 149° |
| 2026-05-07 21:39 | 44.24428 | 5.40569 | 29332 ft | 405 kts | 149° |
| 2026-05-07 21:39 | 44.22215 | 5.42978 | 28882 ft | 402 kts | 148° |
| 2026-05-07 21:40 | 44.20018 | 5.45366 | 28437 ft | 399 kts | 148° |
| 2026-05-07 21:40 | 44.17836 | 5.47735 | 27983 ft | 396 kts | 148° |
| 2026-05-07 21:40 | 44.15671 | 5.50078 | 27546 ft | 392 kts | 148° |
| 2026-05-07 21:40 | 44.13517 | 5.52405 | 27107 ft | 390 kts | 148° |
| 2026-05-07 21:41 | 44.11416 | 5.54679 | 26680 ft | 387 kts | 148° |
| 2026-05-07 21:41 | 44.09296 | 5.56980 | 26247 ft | 385 kts | 147° |
| 2026-05-07 21:41 | 44.07194 | 5.59256 | 25798 ft | 381 kts | 147° |
| 2026-05-07 21:41 | 44.05106 | 5.61511 | 25385 ft | 379 kts | 147° |
| 2026-05-07 21:42 | 44.03032 | 5.63746 | 24974 ft | 376 kts | 147° |
| 2026-05-07 21:42 | 44.00972 | 5.65966 | 24531 ft | 374 kts | 147° |
| 2026-05-07 21:42 | 43.98926 | 5.68170 | 24124 ft | 371 kts | 147° |
| 2026-05-07 21:42 | 43.96891 | 5.70357 | 23707 ft | 369 kts | 147° |
| 2026-05-07 21:43 | 43.94867 | 5.72526 | 23250 ft | 367 kts | 147° |
| 2026-05-07 21:43 | 43.92858 | 5.74687 | 22843 ft | 364 kts | 146° |
| 2026-05-07 21:43 | 43.90861 | 5.76832 | 22433 ft | 362 kts | 146° |
| 2026-05-07 21:43 | 43.88875 | 5.78957 | 22028 ft | 359 kts | 146° |
| 2026-05-07 21:44 | 43.86901 | 5.81066 | 21617 ft | 357 kts | 146° |
| 2026-05-07 21:44 | 43.84941 | 5.83162 | 21227 ft | 355 kts | 146° |
| 2026-05-07 21:44 | 43.82991 | 5.85248 | 20822 ft | 353 kts | 145° |
| 2026-05-07 21:44 | 43.81053 | 5.87318 | 20426 ft | 351 kts | 145° |
| 2026-05-07 21:45 | 43.79127 | 5.89370 | 20036 ft | 348 kts | 145° |
| 2026-05-07 21:45 | 43.77208 | 5.91407 | 19643 ft | 346 kts | 145° |
| 2026-05-07 21:45 | 43.75305 | 5.93430 | 19254 ft | 344 kts | 144° |
| 2026-05-07 21:45 | 43.73418 | 5.95439 | 18856 ft | 342 kts | 144° |
| 2026-05-07 21:46 | 43.71535 | 5.97441 | 18484 ft | 340 kts | 144° |
| 2026-05-07 21:46 | 43.69664 | 5.99424 | 18072 ft | 338 kts | 144° |
| 2026-05-07 21:46 | 43.67831 | 6.01364 | 17689 ft | 335 kts | 144° |
| 2026-05-07 21:46 | 43.65988 | 6.03313 | 17313 ft | 332 kts | 144° |
| 2026-05-07 21:47 | 43.64159 | 6.05247 | 16940 ft | 330 kts | 144° |
| 2026-05-07 21:47 | 43.62344 | 6.07166 | 16572 ft | 328 kts | 143° |
| 2026-05-07 21:47 | 43.60620 | 6.09221 | 16208 ft | 328 kts | 134° |
| 2026-05-07 21:47 | 43.59268 | 6.11750 | 15843 ft | 328 kts | 120° |
| 2026-05-07 21:48 | 43.58345 | 6.14620 | 15495 ft | 327 kts | 112° |
| 2026-05-07 21:48 | 43.57546 | 6.17545 | 15148 ft | 325 kts | 112° |
| 2026-05-07 21:48 | 43.56747 | 6.20452 | 14797 ft | 324 kts | 112° |
| 2026-05-07 21:48 | 43.55952 | 6.23344 | 14451 ft | 321 kts | 112° |
| 2026-05-07 21:49 | 43.55159 | 6.26218 | 14105 ft | 320 kts | 112° |
| 2026-05-07 21:49 | 43.54367 | 6.29071 | 13762 ft | 318 kts | 112° |
| 2026-05-07 21:49 | 43.53582 | 6.31910 | 13396 ft | 316 kts | 112° |
| 2026-05-07 21:49 | 43.52802 | 6.34730 | 13058 ft | 313 kts | 112° |
| 2026-05-07 21:50 | 43.52029 | 6.37524 | 12726 ft | 311 kts | 112° |
| 2026-05-07 21:50 | 43.51268 | 6.40280 | 12498 ft | 305 kts | 112° |
| 2026-05-07 21:50 | 43.50416 | 6.42932 | 12113 ft | 303 kts | 122° |
| 2026-05-07 21:50 | 43.49165 | 6.45225 | 11819 ft | 298 kts | 134° |
| 2026-05-07 21:51 | 43.47742 | 6.47283 | 11505 ft | 295 kts | 134° |
| 2026-05-07 21:51 | 43.46332 | 6.49313 | 11234 ft | 292 kts | 134° |
| 2026-05-07 21:51 | 43.44952 | 6.51298 | 10968 ft | 290 kts | 134° |
| 2026-05-07 21:51 | 43.43561 | 6.53296 | 10693 ft | 288 kts | 134° |
| 2026-05-07 21:52 | 43.42174 | 6.55286 | 10428 ft | 287 kts | 134° |
| 2026-05-07 21:52 | 43.40794 | 6.57266 | 10165 ft | 286 kts | 134° |
| 2026-05-07 21:52 | 43.39515 | 6.59347 | 9893 ft | 285 kts | 123° |
| 2026-05-07 21:52 | 43.38661 | 6.61793 | 9593 ft | 285 kts | 108° |
| 2026-05-07 21:53 | 43.38301 | 6.64453 | 9356 ft | 284 kts | 94° |
| 2026-05-07 21:53 | 43.38200 | 6.67162 | 9202 ft | 284 kts | 94° |
| 2026-05-07 21:53 | 43.38089 | 6.69870 | 9073 ft | 284 kts | 94° |
| 2026-05-07 21:53 | 43.37975 | 6.72575 | 8939 ft | 283 kts | 94° |
| 2026-05-07 21:54 | 43.37860 | 6.75268 | 8758 ft | 281 kts | 94° |
| 2026-05-07 21:54 | 43.37745 | 6.77931 | 8410 ft | 277 kts | 94° |
| 2026-05-07 21:54 | 43.37630 | 6.80567 | 8038 ft | 275 kts | 94° |
| 2026-05-07 21:54 | 43.37516 | 6.83182 | 7668 ft | 274 kts | 94° |
| 2026-05-07 21:55 | 43.37404 | 6.85788 | 7295 ft | 272 kts | 94° |
| 2026-05-07 21:55 | 43.37293 | 6.88375 | 6924 ft | 270 kts | 94° |
| 2026-05-07 21:55 | 43.37182 | 6.90945 | 6564 ft | 268 kts | 94° |
| 2026-05-07 21:55 | 43.37113 | 6.93499 | 6187 ft | 269 kts | 86° |
| 2026-05-07 21:56 | 43.37456 | 6.96021 | 5806 ft | 270 kts | 71° |
| 2026-05-07 21:56 | 43.38251 | 6.98351 | 5421 ft | 269 kts | 61° |
| 2026-05-07 21:56 | 43.39180 | 7.00582 | 5050 ft | 268 kts | 59° |
| 2026-05-07 21:56 | 43.40145 | 7.02775 | 4668 ft | 267 kts | 58° |
| 2026-05-07 21:57 | 43.41117 | 7.04938 | 4284 ft | 265 kts | 58° |
| 2026-05-07 21:57 | 43.42069 | 7.07049 | 3910 ft | 262 kts | 58° |
| 2026-05-07 21:57 | 43.43020 | 7.09162 | 3587 ft | 257 kts | 59° |
| 2026-05-07 21:57 | 43.43944 | 7.11220 | 3216 ft | 247 kts | 59° |
| 2026-05-07 21:58 | 43.44817 | 7.13171 | 3004 ft | 229 kts | 59° |
| 2026-05-07 21:58 | 43.45686 | 7.14919 | 3007 ft | 219 kts | 45° |
| 2026-05-07 21:58 | 43.46976 | 7.16007 | 3009 ft | 220 kts | 15° |
| 2026-05-07 21:58 | 43.48493 | 7.16142 | 3014 ft | 219 kts | 356° |
| 2026-05-07 21:59 | 43.49970 | 7.15992 | 3006 ft | 207 kts | 356° |
| 2026-05-07 21:59 | 43.50928 | 7.15895 | 3006 ft | 203 kts | 356° |
| 2026-05-07 21:59 | 43.52300 | 7.15758 | 2819 ft | 192 kts | 356° |
| 2026-05-07 21:59 | 43.53592 | 7.15632 | 2546 ft | 179 kts | 356° |
| 2026-05-07 22:00 | 43.54765 | 7.15518 | 2286 ft | 161 kts | 357° |
| 2026-05-07 22:00 | 43.55820 | 7.15412 | 2096 ft | 149 kts | 358° |
| 2026-05-07 22:00 | 43.56833 | 7.15321 | 1883 ft | 144 kts | 358° |
| 2026-05-07 22:00 | 43.57824 | 7.15254 | 1702 ft | 142 kts | 359° |
| 2026-05-07 22:01 | 43.58803 | 7.15234 | 1551 ft | 140 kts | 3° |
| 2026-05-07 22:01 | 43.59770 | 7.15367 | 1417 ft | 139 kts | 11° |
| 2026-05-07 22:01 | 43.60719 | 7.15635 | 1259 ft | 139 kts | 14° |
| 2026-05-07 22:01 | 43.61621 | 7.16080 | 1144 ft | 138 kts | 26° |
| 2026-05-07 22:02 | 43.62428 | 7.16778 | 940 ft | 136 kts | 36° |
| 2026-05-07 22:02 | 43.63146 | 7.17630 | 724 ft | 136 kts | 42° |
| 2026-05-07 22:02 | 43.63834 | 7.18536 | 510 ft | 138 kts | 43° |
| 2026-05-07 22:02 | 43.64505 | 7.19471 | 278 ft | 136 kts | 43° |
| 2026-05-07 22:03 | 43.65177 | 7.20401 | 79 ft | 137 kts | 43° |
| 2026-05-07 22:03 | 43.65821 | 7.21283 | 23 ft | 117 kts | 44° |
| 2026-05-07 22:03 | 43.66266 | 7.21894 | 22 ft | 47 kts | 45° |
| 2026-05-07 22:03 | 43.66429 | 7.22026 | 21 ft | 18 kts | 15° |
| 2026-05-07 22:04 | 43.66526 | 7.22049 | 21 ft | 14 kts | 346° |
| 2026-05-07 22:04 | 43.66537 | 7.21944 | 22 ft | 14 kts | 224° |
| 2026-05-07 22:04 | 43.66469 | 7.21856 | 21 ft | 13 kts | 225° |
| 2026-05-07 22:04 | 43.66412 | 7.21774 | 21 ft | 11 kts | 226° |
| 2026-05-07 22:05 | 43.66360 | 7.21703 | 21 ft | 10 kts | 224° |
| 2026-05-07 22:05 | 43.66319 | 7.21639 | 21 ft | 8 kts | 246° |
| 2026-05-07 22:05 | 43.66334 | 7.21581 | 22 ft | 6 kts | 313° |
| 2026-05-07 22:05 | 43.66366 | 7.21541 | 21 ft | 7 kts | 310° |
| 2026-05-07 22:06 | 43.66374 | 7.21479 | 21 ft | 6 kts | 257° |
| 2026-05-07 22:06 | 43.66353 | 7.21427 | 22 ft | 10 kts | 249° |
| 2026-05-07 22:06 | 43.66336 | 7.21288 | 21 ft | 16 kts | 261° |
| 2026-05-07 22:06 | 43.66317 | 7.21123 | 23 ft | 18 kts | 261° |
| 2026-05-07 22:07 | 43.66322 | 7.20945 | 21 ft | 18 kts | 273° |
| 2026-05-07 22:07 | 43.66302 | 7.20784 | 23 ft | 12 kts | 248° |
| 2026-05-07 22:07 | 43.66242 | 7.20761 | 21 ft | 6 kts | 192° |
| 2026-05-07 22:07 | 43.66233 | 7.20719 | 21 ft | 4 kts | 260° |
| 2026-05-07 22:08 | 43.66228 | 7.20674 | 21 ft | 2 kts | 261° |
| 2026-05-07 22:08 | 43.66227 | 7.20666 | 21 ft | 0 kts | 261° |